Time;durP1;ratioP1;P1;durP2;ratioP2;P2;SDS_P1;SDS_P2;PMS_P1;PMS_P2;Temp;Humidity;BMP_temperature;BMP_pressure;BME280_temperature;BME280_humidity;BME280_pressure;Samples;Min_cycle;Max_cycle;Signal;HPM_P1;HPM_P2
2023/09/23 00:00:49;;;;;;;4.50;4.10;;;12.10;99.90;;;;;;5081153;28;20194;-48
2023/09/23 00:03:16;;;;;;;7.53;4.60;;;12.10;99.90;;;;;;5082139;28;20656;-54
2023/09/23 00:05:44;;;;;;;4.93;4.13;;;12.20;99.90;;;;;;5049008;28;20304;-47
2023/09/23 00:08:11;;;;;;;5.17;3.87;;;12.30;99.90;;;;;;5082041;28;20197;-54
2023/09/23 00:10:38;;;;;;;4.50;4.10;;;12.30;99.90;;;;;;5079484;28;20579;-46
2023/09/23 00:13:06;;;;;;;4.07;3.63;;;12.30;99.90;;;;;;5080921;28;20270;-55
2023/09/23 00:15:34;;;;;;;4.67;3.87;;;12.20;99.90;;;;;;5083153;28;20222;-54
2023/09/23 00:18:04;;;;;;;4.67;4.03;;;12.20;99.90;;;;;;5080008;28;20265;-53
2023/09/23 00:20:32;;;;;;;4.33;3.93;;;12.20;99.90;;;;;;5049489;28;20293;-55
2023/09/23 00:23:01;;;;;;;4.33;3.80;;;12.10;99.90;;;;;;5080122;28;20216;-53
2023/09/23 00:25:27;;;;;;;5.53;4.03;;;12.20;99.90;;;;;;5083028;28;20240;-56
2023/09/23 00:27:54;;;;;;;4.17;3.77;;;12.20;99.90;;;;;;5078401;28;20660;-56
2023/09/23 00:30:22;;;;;;;4.67;4.27;;;12.20;99.90;;;;;;5083353;28;20186;-51
2023/09/23 00:32:50;;;;;;;5.93;4.53;;;12.20;99.90;;;;;;5079856;28;20297;-45
2023/09/23 00:35:18;;;;;;;4.07;3.87;;;12.20;99.90;;;;;;5081019;28;20194;-50
2023/09/23 00:37:48;;;;;;;4.33;4.03;;;12.20;99.90;;;;;;5049862;28;20206;-45
2023/09/23 00:40:17;;;;;;;5.07;4.23;;;12.30;99.90;;;;;;5082336;28;20226;-52
2023/09/23 00:42:47;;;;;;;4.60;4.20;;;12.30;99.90;;;;;;5080701;28;20265;-48
2023/09/23 00:45:16;;;;;;;5.20;3.80;;;12.30;99.90;;;;;;5082119;28;20198;-56
2023/09/23 00:47:44;;;;;;;4.33;3.93;;;12.30;99.90;;;;;;5080583;28;20198;-50
2023/09/23 00:50:18;;;;;;;4.17;3.87;;;12.40;99.90;;;;;;5081442;28;20198;-52
2023/09/23 00:52:49;;;;;;;5.27;4.13;;;12.40;99.90;;;;;;5049669;28;20259;-48
2023/09/23 00:55:17;;;;;;;5.33;3.87;;;12.40;99.90;;;;;;5082483;28;20715;-55
2023/09/23 00:57:47;;;;;;;4.93;4.43;;;12.40;99.90;;;;;;5080220;28;20186;-46
2023/09/23 01:00:23;;;;;;;5.10;4.30;;;12.40;99.90;;;;;;5072566;28;20186;-47
2023/09/23 01:02:50;;;;;;;4.47;4.17;;;12.40;99.90;;;;;;5080481;28;20182;-53
2023/09/23 01:05:18;;;;;;;4.83;4.40;;;12.50;99.90;;;;;;5079276;28;20678;-45
2023/09/23 01:07:48;;;;;;;4.30;3.90;;;12.50;99.90;;;;;;5049550;28;20198;-49
2023/09/23 01:10:16;;;;;;;4.40;4.00;;;12.60;99.90;;;;;;5077406;28;20248;-48
2023/09/23 01:12:45;;;;;;;6.83;4.50;;;12.70;99.90;;;;;;5081757;28;20214;-55
2023/09/23 01:15:12;;;;;;;4.67;4.23;;;12.70;99.90;;;;;;5080364;28;20197;-49
2023/09/23 01:17:39;;;;;;;5.03;4.53;;;12.80;99.90;;;;;;5080561;28;21001;-49
2023/09/23 01:20:09;;;;;;;5.07;4.50;;;12.80;99.90;;;;;;5081120;28;20198;-48
2023/09/23 01:22:37;;;;;;;5.17;4.70;;;12.80;99.90;;;;;;5049448;28;20207;-48
2023/09/23 01:25:05;;;;;;;4.30;3.90;;;12.80;99.90;;;;;;5080532;28;20231;-44
2023/09/23 01:27:34;;;;;;;6.23;4.53;;;12.80;99.90;;;;;;5076814;28;20840;-49
2023/09/23 01:30:03;;;;;;;5.10;4.70;;;12.80;99.90;;;;;;5080593;28;20201;-48
2023/09/23 01:32:37;;;;;;;4.57;4.20;;;12.90;99.90;;;;;;5077497;28;20217;-47
2023/09/23 01:35:05;;;;;;;4.93;4.30;;;12.90;99.90;;;;;;5079930;28;20233;-49
2023/09/23 01:37:32;;;;;;;6.27;4.57;;;12.90;99.90;;;;;;5047147;28;20230;-48
2023/09/23 01:40:00;;;;;;;5.93;4.73;;;13.00;99.90;;;;;;5078989;28;20202;-49
2023/09/23 01:42:30;;;;;;;7.07;4.97;;;13.00;99.90;;;;;;5076847;28;20242;-52
2023/09/23 01:44:57;;;;;;;5.10;4.60;;;13.10;99.90;;;;;;5081899;28;20198;-53
2023/09/23 01:47:25;;;;;;;4.83;4.43;;;13.00;99.90;;;;;;5077955;28;21000;-49
2023/09/23 01:49:52;;;;;;;4.77;4.37;;;13.10;99.90;;;;;;5083824;28;20277;-52
2023/09/23 01:52:19;;;;;;;5.90;4.80;;;13.10;99.90;;;;;;5054909;28;20193;-43
2023/09/23 01:54:47;;;;;;;7.03;5.30;;;13.10;99.90;;;;;;5083686;28;20205;-49
2023/09/23 01:57:17;;;;;;;5.50;5.00;;;13.10;99.90;;;;;;5083419;28;20213;-47
2023/09/23 01:59:44;;;;;;;5.93;5.20;;;13.10;99.90;;;;;;5082651;28;20206;-49
2023/09/23 02:02:11;;;;;;;7.60;4.70;;;13.10;99.90;;;;;;5082619;28;20731;-50
2023/09/23 02:04:40;;;;;;;5.30;4.90;;;13.10;99.90;;;;;;5082437;28;20185;-50
2023/09/23 02:07:07;;;;;;;7.03;6.43;;;13.10;99.90;;;;;;5084327;28;20229;-44
2023/09/23 02:09:35;;;;;;;6.40;5.80;;;13.10;99.90;;;;;;5052822;28;20204;-47
2023/09/23 02:12:02;;;;;;;6.57;5.90;;;13.10;99.90;;;;;;5082414;28;20789;-48
2023/09/23 02:14:30;;;;;;;6.57;5.97;;;13.10;99.90;;;;;;5081985;28;20293;-49
2023/09/23 02:16:57;;;;;;;6.43;5.83;;;13.20;99.90;;;;;;5084309;28;20308;-48
2023/09/23 02:19:25;;;;;;;7.60;6.90;;;13.20;99.90;;;;;;5081624;28;20293;-52
2023/09/23 02:21:52;;;;;;;9.13;7.20;;;13.10;99.90;;;;;;5085519;28;20198;-52
2023/09/23 02:24:20;;;;;;;7.87;7.27;;;13.10;99.90;;;;;;5052642;28;20335;-46
2023/09/23 02:26:47;;;;;;;7.27;6.30;;;13.20;99.90;;;;;;5074412;28;20225;-49
2023/09/23 02:29:15;;;;;;;8.73;6.60;;;13.30;99.90;;;;;;5081758;28;20202;-49
2023/09/23 02:31:47;;;;;;;7.50;6.90;;;13.20;99.90;;;;;;5079144;28;20198;-53
2023/09/23 02:34:17;;;;;;;7.33;6.63;;;13.20;99.90;;;;;;5080059;28;20213;-52
2023/09/23 02:36:45;;;;;;;7.47;6.87;;;13.20;99.90;;;;;;5083894;28;20221;-51
2023/09/23 02:39:15;;;;;;;7.90;7.17;;;13.20;99.90;;;;;;5080036;28;20664;-45
2023/09/23 02:41:45;;;;;;;7.97;7.20;;;13.10;99.90;;;;;;5052915;28;20205;-52
2023/09/23 02:44:18;;;;;;;8.17;7.40;;;13.10;99.90;;;;;;5080010;28;20235;-52
2023/09/23 02:46:47;;;;;;;9.30;8.40;;;13.10;99.90;;;;;;5082341;28;20221;-47
2023/09/23 02:49:14;;;;;;;9.27;8.33;;;13.20;99.90;;;;;;5081154;28;20763;-51
2023/09/23 02:51:42;;;;;;;9.47;8.10;;;13.20;99.90;;;;;;5083669;28;20230;-52
2023/09/23 02:54:11;;;;;;;10.17;8.97;;;13.20;99.90;;;;;;5081654;28;20753;-46
2023/09/23 02:56:38;;;;;;;10.37;9.07;;;13.10;99.90;;;;;;5050311;28;20228;-51
2023/09/23 02:59:11;;;;;;;9.73;8.77;;;13.20;99.90;;;;;;5082543;28;20273;-44
2023/09/23 03:01:44;;;;;;;9.87;8.77;;;13.20;99.90;;;;;;5083056;28;20213;-49
2023/09/23 03:04:17;;;;;;;10.57;9.53;;;13.30;99.90;;;;;;5081231;28;20259;-43
2023/09/23 03:06:49;;;;;;;10.47;9.23;;;13.30;99.90;;;;;;5083031;28;20221;-49
2023/09/23 03:09:19;;;;;;;10.13;9.03;;;13.30;99.90;;;;;;5080715;28;20277;-50
2023/09/23 03:11:53;;;;;;;10.53;9.47;;;13.30;99.90;;;;;;5080696;28;20539;-48
2023/09/23 03:14:23;;;;;;;11.33;10.33;;;13.30;99.90;;;;;;5055108;28;20202;-53
2023/09/23 03:16:51;;;;;;;11.97;10.77;;;13.30;99.90;;;;;;5084294;28;20301;-49
2023/09/23 03:19:24;;;;;;;12.77;11.47;;;13.30;99.90;;;;;;5079309;28;20887;-47
2023/09/23 03:21:54;;;;;;;12.63;10.80;;;13.30;99.90;;;;;;5084443;28;20536;-51
2023/09/23 03:24:21;;;;;;;11.13;10.03;;;13.30;99.90;;;;;;5081026;28;20889;-50
2023/09/23 03:26:50;;;;;;;13.40;10.50;;;13.30;99.90;;;;;;5082860;28;20296;-49
2023/09/23 03:29:18;;;;;;;11.80;10.70;;;13.30;99.90;;;;;;5048304;28;20305;-46
2023/09/23 03:31:45;;;;;;;11.00;9.93;;;13.30;99.90;;;;;;5099817;28;20228;-49
2023/09/23 03:34:13;;;;;;;11.93;10.73;;;13.40;99.90;;;;;;5080469;28;20214;-46
2023/09/23 03:36:41;;;;;;;13.50;12.10;;;13.40;99.90;;;;;;5082337;28;20325;-51
2023/09/23 03:39:08;;;;;;;12.80;11.60;;;13.40;99.90;;;;;;5079516;28;20193;-46
2023/09/23 03:41:36;;;;;;;12.80;11.50;;;13.40;99.90;;;;;;5080597;28;20213;-47
2023/09/23 03:44:04;;;;;;;13.37;11.50;;;13.30;99.90;;;;;;5039745;28;20311;-49
2023/09/23 03:46:31;;;;;;;14.23;12.80;;;13.30;99.90;;;;;;5083178;28;20218;-45
2023/09/23 03:48:58;;;;;;;13.07;11.67;;;13.30;99.90;;;;;;5079964;28;20566;-50
2023/09/23 03:51:25;;;;;;;13.63;12.17;;;13.30;99.90;;;;;;5082611;28;20202;-47
2023/09/23 03:53:53;;;;;;;12.67;11.30;;;13.30;99.90;;;;;;5080169;28;20205;-51
2023/09/23 03:56:24;;;;;;;14.13;12.73;;;13.30;99.90;;;;;;5082553;28;20633;-51
2023/09/23 03:58:51;;;;;;;13.00;11.67;;;13.30;99.90;;;;;;5049591;28;20201;-52
2023/09/23 04:01:20;;;;;;;12.93;11.60;;;13.30;99.90;;;;;;5084043;28;20213;-51
2023/09/23 04:03:47;;;;;;;13.20;11.80;;;13.30;99.90;;;;;;5078110;28;20874;-53
2023/09/23 04:06:13;;;;;;;13.20;11.70;;;13.30;99.90;;;;;;5082488;28;20218;-50
2023/09/23 04:08:40;;;;;;;13.33;12.00;;;13.30;99.90;;;;;;5078874;28;20213;-49
2023/09/23 04:11:09;;;;;;;13.43;12.07;;;13.30;99.90;;;;;;5083392;28;20197;-51
2023/09/23 04:13:36;;;;;;;14.13;12.33;;;13.30;99.90;;;;;;5050824;28;20210;-46
2023/09/23 04:16:03;;;;;;;15.23;13.73;;;13.30;99.90;;;;;;5082131;28;20293;-51
2023/09/23 04:18:31;;;;;;;14.33;12.90;;;13.30;99.90;;;;;;5080645;28;20221;-49
2023/09/23 04:20:57;;;;;;;15.10;13.37;;;13.30;99.90;;;;;;5081040;28;20199;-51
2023/09/23 04:23:24;;;;;;;14.27;12.87;;;13.30;99.90;;;;;;5083559;28;20571;-48
2023/09/23 04:25:52;;;;;;;15.13;13.03;;;13.30;99.90;;;;;;5078979;28;20228;-50
2023/09/23 04:28:20;;;;;;;15.93;13.43;;;13.40;99.90;;;;;;5082253;28;20200;-51
2023/09/23 04:30:47;;;;;;;17.37;14.23;;;13.40;99.90;;;;;;5043534;28;20990;-50
2023/09/23 04:33:14;;;;;;;17.70;14.30;;;13.40;99.90;;;;;;5083391;28;20248;-51
2023/09/23 04:35:41;;;;;;;16.37;14.67;;;13.40;99.90;;;;;;5079532;28;20283;-49
2023/09/23 04:38:07;;;;;;;16.30;14.60;;;13.40;99.90;;;;;;5082801;28;20194;-53
2023/09/23 04:40:34;;;;;;;15.73;13.80;;;13.40;99.90;;;;;;5081015;28;20194;-45
2023/09/23 04:43:03;;;;;;;17.03;14.27;;;13.40;99.90;;;;;;5071783;28;20251;-50
2023/09/23 04:45:31;;;;;;;14.87;13.37;;;13.40;99.90;;;;;;5050883;28;20632;-45
2023/09/23 04:48:00;;;;;;;16.10;14.10;;;13.40;99.90;;;;;;5077333;28;20198;-49
2023/09/23 04:50:28;;;;;;;16.40;14.60;;;13.40;99.90;;;;;;5082126;28;20200;-48
2023/09/23 04:52:55;;;;;;;17.47;12.87;;;13.30;99.90;;;;;;5079771;28;20239;-47
2023/09/23 04:55:22;;;;;;;15.50;13.67;;;13.30;99.90;;;;;;5082619;28;20263;-49
2023/09/23 04:57:49;;;;;;;16.37;14.23;;;13.30;99.90;;;;;;5078466;28;20209;-47
2023/09/23 05:00:21;;;;;;;15.47;13.80;;;13.40;99.90;;;;;;5042383;28;20252;-44
2023/09/23 05:02:49;;;;;;;14.40;12.40;;;13.40;99.90;;;;;;5080016;28;20197;-50
2023/09/23 05:05:19;;;;;;;14.23;12.73;;;13.40;99.90;;;;;;5080816;28;20240;-49
2023/09/23 05:07:46;;;;;;;14.37;12.87;;;13.40;99.90;;;;;;5073548;28;20869;-47
2023/09/23 05:10:13;;;;;;;14.43;12.93;;;13.40;99.90;;;;;;5070680;28;20210;-50
2023/09/23 05:12:41;;;;;;;15.37;13.17;;;13.30;99.90;;;;;;5078752;28;20214;-48
2023/09/23 05:15:09;;;;;;;14.17;12.77;;;13.30;99.90;;;;;;5078349;28;20611;-55
2023/09/23 05:17:37;;;;;;;16.63;13.27;;;13.30;99.90;;;;;;5057088;28;20190;-46
2023/09/23 05:20:16;;;;;;;15.37;13.70;;;13.30;99.90;;;;;;5081954;28;20715;-50
2023/09/23 05:22:43;;;;;;;15.53;13.93;;;13.30;99.90;;;;;;5073506;28;20202;-49
2023/09/23 05:25:11;;;;;;;15.07;13.43;;;13.30;99.90;;;;;;5081853;28;20194;-52
2023/09/23 05:27:39;;;;;;;15.33;13.20;;;13.40;99.90;;;;;;5069917;28;20202;-46
2023/09/23 05:30:07;;;;;;;16.57;13.47;;;13.40;99.90;;;;;;5081796;28;20193;-46
2023/09/23 05:32:35;;;;;;;17.03;15.33;;;13.40;99.90;;;;;;5036057;28;21008;-47
2023/09/23 05:35:02;;;;;;;18.80;14.20;;;13.40;99.90;;;;;;5081385;28;20708;-51
2023/09/23 05:37:30;;;;;;;17.20;15.07;;;13.30;99.90;;;;;;5077990;28;20209;-51
2023/09/23 05:39:57;;;;;;;16.50;14.63;;;13.40;99.90;;;;;;5075349;28;20206;-50
2023/09/23 05:42:25;;;;;;;17.37;15.50;;;13.30;99.90;;;;;;5078996;28;20201;-49
2023/09/23 05:44:52;;;;;;;17.13;15.30;;;13.30;99.90;;;;;;5081975;28;20269;-48
2023/09/23 05:47:19;;;;;;;18.37;16.10;;;13.30;99.90;;;;;;5049200;28;20308;-49
2023/09/23 05:49:46;;;;;;;18.67;15.97;;;13.30;99.90;;;;;;5072565;28;20753;-46
2023/09/23 05:52:14;;;;;;;20.00;16.17;;;13.30;99.90;;;;;;5081035;28;20271;-48
2023/09/23 05:54:43;;;;;;;20.33;16.33;;;13.30;99.90;;;;;;5071618;28;20217;-49
2023/09/23 05:57:09;;;;;;;19.57;17.57;;;13.30;99.90;;;;;;5081815;28;20292;-46
2023/09/23 05:59:37;;;;;;;19.73;16.27;;;13.30;99.90;;;;;;5076456;28;20946;-48
2023/09/23 06:02:08;;;;;;;18.50;15.77;;;13.30;99.90;;;;;;5081485;28;20219;-48
2023/09/23 06:04:35;;;;;;;17.73;15.93;;;13.20;99.90;;;;;;5044314;28;20208;-46
2023/09/23 06:07:02;;;;;;;17.57;15.67;;;13.20;99.90;;;;;;5081662;28;20214;-50
2023/09/23 06:09:29;;;;;;;17.00;15.30;;;13.20;99.90;;;;;;5071230;28;20200;-49
2023/09/23 06:11:57;;;;;;;18.60;14.87;;;13.20;99.90;;;;;;5081915;28;20189;-47
2023/09/23 06:14:25;;;;;;;16.57;14.87;;;13.20;99.90;;;;;;5077495;28;20226;-47
2023/09/23 06:16:52;;;;;;;16.40;13.57;;;13.20;99.90;;;;;;5081432;28;20216;-47
2023/09/23 06:19:18;;;;;;;16.93;15.00;;;13.20;99.90;;;;;;5046192;28;20233;-48
2023/09/23 06:21:45;;;;;;;16.63;14.90;;;13.20;99.90;;;;;;5071514;28;20217;-47
2023/09/23 06:24:12;;;;;;;19.43;15.13;;;13.20;99.90;;;;;;5080795;28;20711;-47
2023/09/23 06:26:39;;;;;;;16.67;14.87;;;13.30;99.90;;;;;;5088165;28;20206;-46
2023/09/23 06:29:09;;;;;;;17.03;14.93;;;13.30;99.90;;;;;;5080589;28;20707;-46
2023/09/23 06:31:35;;;;;;;15.57;14.07;;;13.30;99.90;;;;;;5077968;28;20186;-45
2023/09/23 06:34:03;;;;;;;15.60;13.43;;;13.30;99.90;;;;;;5050888;28;20279;-52
2023/09/23 06:36:30;;;;;;;15.10;13.50;;;13.30;99.90;;;;;;5067804;28;20227;-49
2023/09/23 06:38:56;;;;;;;15.33;13.83;;;13.30;99.90;;;;;;5084904;28;20660;-46
2023/09/23 06:41:23;;;;;;;18.53;13.97;;;13.20;99.90;;;;;;5075003;28;20209;-46
2023/09/23 06:43:52;;;;;;;15.40;12.17;;;13.20;99.90;;;;;;5085091;28;20239;-47
2023/09/23 06:46:21;;;;;;;12.60;11.40;;;13.20;99.90;;;;;;5082133;28;20338;-45
2023/09/23 06:48:48;;;;;;;14.40;11.73;;;13.30;99.90;;;;;;5053417;28;20242;-52
2023/09/23 06:51:14;;;;;;;13.57;11.50;;;13.30;99.90;;;;;;5075300;28;20275;-48
2023/09/23 06:53:42;;;;;;;11.67;10.50;;;13.30;99.90;;;;;;5082974;28;20266;-48
2023/09/23 06:56:09;;;;;;;11.70;9.80;;;13.40;99.90;;;;;;5077669;28;20293;-47
2023/09/23 06:58:36;;;;;;;10.53;9.53;;;13.50;99.90;;;;;;5081558;28;20186;-47
2023/09/23 07:01:03;;;;;;;11.27;10.00;;;13.50;99.90;;;;;;5084711;28;20286;-46
2023/09/23 07:03:31;;;;;;;10.80;9.80;;;13.50;99.90;;;;;;5049465;28;23044;-46
2023/09/23 07:05:58;;;;;;;9.87;8.40;;;13.50;99.90;;;;;;5084972;28;20229;-49
2023/09/23 07:08:25;;;;;;;9.20;8.30;;;13.50;99.90;;;;;;5071163;28;20209;-46
2023/09/23 07:10:52;;;;;;;8.50;7.57;;;13.50;99.90;;;;;;5083363;28;20275;-51
2023/09/23 07:13:19;;;;;;;8.73;7.50;;;13.50;99.90;;;;;;5072999;28;20218;-50
2023/09/23 07:15:45;;;;;;;8.93;7.90;;;13.50;99.90;;;;;;5083425;28;20233;-53
2023/09/23 07:18:14;;;;;;;7.90;7.03;;;13.50;99.90;;;;;;5082157;28;20733;-51
2023/09/23 07:20:42;;;;;;;6.87;6.23;;;13.50;99.90;;;;;;5051933;28;20277;-51
2023/09/23 07:23:09;;;;;;;6.90;6.30;;;13.50;99.90;;;;;;5075112;28;20686;-56
2023/09/23 07:25:42;;;;;;;6.47;5.87;;;13.50;99.90;;;;;;5081191;28;20206;-43
2023/09/23 07:28:08;;;;;;;6.70;5.97;;;13.50;99.90;;;;;;5076753;28;20210;-54
2023/09/23 07:30:36;;;;;;;6.30;5.70;;;13.50;99.90;;;;;;5080866;28;20193;-45
2023/09/23 07:33:03;;;;;;;5.13;4.73;;;13.60;99.90;;;;;;5099890;28;20238;-42
2023/09/23 07:35:31;;;;;;;5.00;4.60;;;13.60;99.90;;;;;;5046715;28;22403;-47
2023/09/23 07:38:00;;;;;;;5.27;4.63;;;13.70;99.90;;;;;;5074907;28;20225;-44
2023/09/23 07:40:27;;;;;;;5.47;5.00;;;13.70;99.90;;;;;;5079350;28;20202;-48
2023/09/23 07:42:54;;;;;;;4.60;4.30;;;13.70;99.90;;;;;;5077028;28;20284;-45
2023/09/23 07:45:21;;;;;;;5.00;4.50;;;13.70;99.90;;;;;;5081697;28;20186;-59
2023/09/23 07:47:48;;;;;;;4.27;3.97;;;13.70;99.90;;;;;;5081866;28;20217;-50
2023/09/23 07:50:15;;;;;;;4.37;4.07;;;13.70;99.90;;;;;;5069592;28;20198;-58
2023/09/23 07:52:42;;;;;;;3.80;3.50;;;13.80;99.90;;;;;;5056599;28;20199;-47
2023/09/23 07:55:11;;;;;;;4.20;3.90;;;13.80;99.90;;;;;;5082836;28;20229;-50
2023/09/23 07:57:38;;;;;;;3.60;3.30;;;13.80;99.90;;;;;;5074185;28;20271;-48
2023/09/23 08:00:07;;;;;;;3.70;3.20;;;13.90;99.90;;;;;;5083900;28;20620;-48
2023/09/23 08:02:38;;;;;;;6.20;3.37;;;14.00;99.90;;;;;;5080221;28;20292;-47
2023/09/23 08:05:06;;;;;;;3.07;2.87;;;14.10;99.90;;;;;;5083493;28;20652;-46
2023/09/23 08:07:33;;;;;;;2.67;2.47;;;14.10;99.90;;;;;;5048980;28;20220;-47
2023/09/23 08:10:02;;;;;;;3.00;2.37;;;14.10;99.90;;;;;;5074096;28;20194;-49
2023/09/23 08:12:30;;;;;;;3.30;2.83;;;14.10;99.90;;;;;;5079564;28;20205;-44
2023/09/23 08:14:59;;;;;;;2.67;2.30;;;14.10;99.90;;;;;;5075788;28;20734;-45
2023/09/23 08:17:26;;;;;;;3.07;2.47;;;14.20;99.90;;;;;;5079624;28;20275;-45
2023/09/23 08:19:53;;;;;;;3.03;2.73;;;14.20;99.90;;;;;;5083169;28;20259;-51
2023/09/23 08:22:20;;;;;;;2.43;2.23;;;14.20;99.90;;;;;;5059224;28;20281;-47
2023/09/23 08:24:48;;;;;;;2.93;2.40;;;14.30;99.90;;;;;;5067321;28;20363;-52
2023/09/23 08:27:15;;;;;;;4.33;2.33;;;14.30;99.90;;;;;;5071088;28;20206;-50
2023/09/23 08:29:43;;;;;;;2.43;2.23;;;14.30;99.90;;;;;;5076218;28;20807;-50
2023/09/23 08:32:10;;;;;;;2.70;2.10;;;14.40;99.90;;;;;;5079245;28;20194;-51
2023/09/23 08:34:36;;;;;;;4.03;2.00;;;14.30;99.90;;;;;;5082445;28;20225;-49
2023/09/23 08:37:03;;;;;;;2.50;2.30;;;14.40;99.90;;;;;;5077680;28;20708;-47
2023/09/23 08:39:30;;;;;;;2.70;2.23;;;14.40;99.90;;;;;;5049681;28;20225;-48
2023/09/23 08:42:00;;;;;;;1.87;1.70;;;14.40;99.90;;;;;;5071085;28;20250;-54
2023/09/23 08:44:32;;;;;;;2.00;1.90;;;14.40;99.90;;;;;;5081919;28;20201;-50
2023/09/23 08:47:01;;;;;;;3.47;2.00;;;14.50;99.90;;;;;;5079883;28;20214;-47
2023/09/23 08:49:29;;;;;;;2.33;1.77;;;14.50;99.90;;;;;;5081951;28;20189;-52
2023/09/23 08:51:56;;;;;;;5.47;2.20;;;14.50;99.90;;;;;;5080547;28;20194;-48
2023/09/23 08:54:25;;;;;;;2.07;1.80;;;14.50;99.90;;;;;;5047092;28;20210;-49
2023/09/23 08:56:54;;;;;;;2.27;1.97;;;14.50;99.90;;;;;;5071851;28;20217;-50
2023/09/23 08:59:21;;;;;;;4.13;1.83;;;14.40;99.90;;;;;;5080168;28;20186;-53
2023/09/23 09:01:48;;;;;;;2.27;2.00;;;14.40;99.90;;;;;;5081849;28;20206;-51
2023/09/23 09:04:16;;;;;;;2.13;1.93;;;14.40;99.90;;;;;;5078736;28;20189;-48
2023/09/23 09:06:50;;;;;;;1.70;1.60;;;14.50;99.90;;;;;;5081689;28;20265;-47
2023/09/23 09:09:17;;;;;;;4.53;2.30;;;14.50;99.90;;;;;;5047534;28;25075;-51
2023/09/23 09:11:46;;;;;;;4.73;2.40;;;14.50;99.90;;;;;;5073914;28;20201;-46
2023/09/23 09:14:13;;;;;;;2.20;2.00;;;14.60;99.90;;;;;;5078349;28;20370;-49
2023/09/23 09:16:40;;;;;;;3.67;1.93;;;14.60;99.90;;;;;;5081997;28;20242;-53
2023/09/23 09:19:07;;;;;;;2.93;2.63;;;14.60;99.90;;;;;;5078002;28;20213;-55
2023/09/23 09:21:36;;;;;;;2.77;2.03;;;14.70;99.90;;;;;;5080772;28;20656;-51
2023/09/23 09:24:04;;;;;;;2.47;2.10;;;14.70;99.90;;;;;;5052711;28;20661;-49
2023/09/23 09:26:31;;;;;;;2.80;2.37;;;14.70;99.90;;;;;;5078571;28;20284;-48
2023/09/23 09:28:58;;;;;;;3.57;1.83;;;14.70;99.90;;;;;;5070507;28;20205;-43
2023/09/23 09:31:34;;;;;;;2.83;2.63;;;14.60;99.90;;;;;;5080900;28;20925;-51
2023/09/23 09:34:05;;;;;;;2.20;2.07;;;14.60;99.90;;;;;;5078432;28;20285;-45
2023/09/23 09:36:36;;;;;;;4.30;2.50;;;14.60;99.90;;;;;;5080273;28;20296;-54
2023/09/23 09:39:08;;;;;;;2.50;2.30;;;14.50;99.90;;;;;;5078093;28;20567;-46
2023/09/23 09:41:45;;;;;;;2.40;2.07;;;14.50;99.90;;;;;;5049791;28;20209;-54
2023/09/23 09:44:14;;;;;;;3.70;2.60;;;14.50;99.90;;;;;;5069658;28;20367;-51
2023/09/23 09:46:42;;;;;;;4.00;1.97;;;14.60;99.90;;;;;;5081550;28;20296;-50
2023/09/23 09:49:10;;;;;;;2.10;1.90;;;14.70;99.90;;;;;;5077482;28;20192;-51
2023/09/23 09:51:37;;;;;;;4.60;2.27;;;14.80;99.90;;;;;;5081600;28;20205;-52
2023/09/23 09:54:06;;;;;;;6.93;2.23;;;14.90;99.90;;;;;;5076270;28;20297;-47
2023/09/23 09:56:34;;;;;;;2.17;1.97;;;14.90;99.90;;;;;;5048348;28;20213;-52
2023/09/23 09:59:03;;;;;;;3.23;1.93;;;15.00;99.90;;;;;;5063780;28;20256;-47
2023/09/23 10:01:30;;;;;;;2.60;2.40;;;15.10;99.90;;;;;;5081830;28;20285;-49
2023/09/23 10:03:59;;;;;;;2.93;1.90;;;15.20;99.90;;;;;;5079658;28;20664;-47
2023/09/23 10:06:26;;;;;;;2.03;1.80;;;15.30;99.90;;;;;;5080251;28;20288;-55
2023/09/23 10:08:53;;;;;;;2.10;1.83;;;15.30;99.90;;;;;;5080124;28;20664;-47
2023/09/23 10:11:34;;;;;;;2.00;1.90;;;15.40;99.90;;;;;;5081386;28;20880;-51
2023/09/23 10:14:12;;;;;;;2.40;1.60;;;15.50;99.90;;;;;;5046295;28;20209;-44
2023/09/23 10:16:39;;;;;;;2.70;1.70;;;15.60;99.90;;;;;;5085464;28;20217;-47
2023/09/23 10:19:11;;;;;;;1.70;1.60;;;15.70;99.90;;;;;;5081581;28;20358;-52
2023/09/23 10:21:39;;;;;;;2.17;1.77;;;15.80;99.90;;;;;;5075853;28;20201;-48
2023/09/23 10:24:08;;;;;;;1.43;1.33;;;15.90;99.90;;;;;;5081515;28;20198;-48
2023/09/23 10:26:43;;;;;;;1.57;1.40;;;16.00;99.90;;;;;;5084448;28;20229;-52
2023/09/23 10:29:10;;;;;;;2.03;1.40;;;16.10;99.90;;;;;;5028540;28;20237;-51
2023/09/23 10:31:38;;;;;;;2.00;1.60;;;16.00;99.90;;;;;;5071613;28;20205;-52
2023/09/23 10:34:06;;;;;;;4.60;1.73;;;15.90;99.90;;;;;;5085252;28;20201;-50
2023/09/23 10:36:33;;;;;;;3.53;1.50;;;15.90;99.90;;;;;;5080949;28;20824;-55
2023/09/23 10:39:01;;;;;;;1.53;1.43;;;15.80;99.90;;;;;;5085024;28;20186;-52
2023/09/23 10:41:34;;;;;;;2.03;1.67;;;15.80;99.90;;;;;;5081522;28;20213;-44
2023/09/23 10:44:03;;;;;;;1.90;1.77;;;15.90;99.90;;;;;;5055401;28;20198;-52
2023/09/23 10:46:30;;;;;;;1.70;1.57;;;15.90;99.90;;;;;;5072232;28;20708;-50
2023/09/23 10:48:59;;;;;;;3.60;2.07;;;16.00;99.90;;;;;;5085048;28;20240;-53
2023/09/23 10:51:27;;;;;;;1.40;1.30;;;16.10;99.90;;;;;;5081307;28;20194;-46
2023/09/23 10:53:55;;;;;;;2.50;1.40;;;16.20;99.90;;;;;;5085004;28;20255;-51
2023/09/23 10:56:22;;;;;;;1.47;1.37;;;16.40;99.90;;;;;;5080814;28;20206;-47
2023/09/23 10:58:50;;;;;;;3.10;1.40;;;16.60;99.90;;;;;;5054930;28;20202;-53
2023/09/23 11:01:20;;;;;;;1.80;1.60;;;16.70;99.90;;;;;;5074678;28;20230;-46
2023/09/23 11:03:47;;;;;;;1.77;1.63;;;16.60;99.90;;;;;;5083762;28;20286;-55
2023/09/23 11:06:16;;;;;;;1.57;1.47;;;16.60;99.90;;;;;;5083612;28;20229;-43
2023/09/23 11:08:43;;;;;;;2.07;1.90;;;16.60;99.90;;;;;;5082067;28;20265;-51
2023/09/23 11:11:10;;;;;;;3.30;1.87;;;16.80;99.90;;;;;;5082676;28;20201;-50
2023/09/23 11:13:37;;;;;;;2.03;1.93;;;16.80;99.90;;;;;;5081524;28;20182;-52
2023/09/23 11:16:09;;;;;;;1.93;1.57;;;16.70;99.90;;;;;;5043978;28;20222;-54
2023/09/23 11:18:38;;;;;;;2.13;1.93;;;16.70;99.90;;;;;;5081473;28;20196;-53
2023/09/23 11:21:05;;;;;;;2.07;1.83;;;16.70;99.90;;;;;;5083377;28;20194;-48
2023/09/23 11:23:32;;;;;;;2.30;2.10;;;16.70;99.90;;;;;;5080658;28;20912;-55
2023/09/23 11:25:59;;;;;;;2.77;2.10;;;16.70;99.90;;;;;;5084165;28;20288;-53
2023/09/23 11:28:27;;;;;;;2.03;1.93;;;16.80;99.90;;;;;;5080532;28;20202;-51
2023/09/23 11:30:55;;;;;;;1.97;1.87;;;17.00;99.90;;;;;;5047423;28;20198;-44
2023/09/23 11:33:22;;;;;;;6.20;3.03;;;17.10;99.90;;;;;;5080437;28;20198;-53
2023/09/23 11:35:51;;;;;;;3.77;3.53;;;17.00;99.90;;;;;;5082733;28;20355;-46
2023/09/23 11:38:18;;;;;;;3.50;3.30;;;17.00;99.90;;;;;;5082032;28;20186;-53
2023/09/23 11:40:46;;;;;;;3.67;3.33;;;16.90;99.90;;;;;;5080992;28;20190;-47
2023/09/23 11:43:13;;;;;;;4.43;4.13;;;16.90;99.90;;;;;;5081026;28;20232;-52
2023/09/23 11:45:41;;;;;;;4.27;3.87;;;17.00;99.90;;;;;;5083996;28;20268;-54
2023/09/23 11:48:09;;;;;;;5.37;4.97;;;17.00;99.90;;;;;;5050497;28;21025;-55
2023/09/23 11:50:36;;;;;;;5.37;4.90;;;17.00;99.90;;;;;;5083498;28;20280;-53
2023/09/23 11:53:06;;;;;;;5.63;5.23;;;17.00;99.90;;;;;;5078080;28;20274;-48
2023/09/23 11:55:33;;;;;;;6.07;5.57;;;17.00;99.90;;;;;;5082169;28;20221;-51
2023/09/23 11:58:00;;;;;;;6.20;5.80;;;17.10;99.90;;;;;;5080220;28;20244;-46
2023/09/23 12:00:28;;;;;;;8.10;7.60;;;17.10;99.90;;;;;;5083660;28;20206;-48
2023/09/23 12:02:55;;;;;;;8.10;7.50;;;17.10;99.90;;;;;;5050913;28;20213;-44
2023/09/23 12:05:28;;;;;;;7.93;7.40;;;17.10;99.90;;;;;;5082565;28;20190;-47
2023/09/23 12:07:55;;;;;;;6.73;6.27;;;17.10;99.90;;;;;;5080429;28;20205;-44
2023/09/23 12:10:23;;;;;;;7.37;6.87;;;17.20;99.90;;;;;;5080401;28;20900;-51
2023/09/23 12:12:50;;;;;;;7.20;6.60;;;17.20;99.90;;;;;;5081637;28;20630;-45
2023/09/23 12:15:17;;;;;;;7.77;7.27;;;17.40;99.90;;;;;;5081682;28;20193;-55
2023/09/23 12:17:43;;;;;;;8.77;8.07;;;17.40;99.90;;;;;;5046827;28;20293;-47
2023/09/23 12:20:11;;;;;;;8.00;7.47;;;17.40;99.90;;;;;;5079731;28;20935;-52
2023/09/23 12:22:38;;;;;;;8.60;8.00;;;17.30;99.90;;;;;;5083582;28;20703;-45
2023/09/23 12:25:06;;;;;;;8.23;7.63;;;17.20;99.90;;;;;;5077036;28;20202;-51
2023/09/23 12:27:34;;;;;;;7.20;6.50;;;17.20;99.90;;;;;;5083557;28;20214;-53
2023/09/23 12:30:01;;;;;;;8.00;7.40;;;17.20;99.90;;;;;;5079352;28;20202;-44
2023/09/23 12:32:28;;;;;;;7.13;6.63;;;17.30;99.90;;;;;;5083086;28;20194;-49
2023/09/23 12:34:56;;;;;;;6.93;6.33;;;17.30;99.90;;;;;;5036429;28;20858;-49
2023/09/23 12:37:26;;;;;;;6.80;6.30;;;17.30;99.90;;;;;;5081418;28;20218;-45
2023/09/23 12:39:53;;;;;;;7.50;6.83;;;17.30;99.90;;;;;;5080624;28;20924;-49
2023/09/23 12:42:20;;;;;;;7.10;6.50;;;17.30;99.90;;;;;;5082524;28;20194;-47
2023/09/23 12:44:48;;;;;;;7.33;6.73;;;17.30;99.90;;;;;;5080451;28;20182;-50